Wolgastern — CQLH — position and weather

sailwx.info

Track history (hours):
 
Tides and Currents Weather Stations Pressure Air Temp Water Temp Dewpoint Dewpoint Depression Visibility Wind Speed Wind Dir Waves Ship Positions

Wolgastern

Last reported at 2017-Oct-17 00:21 UTC. Time now 2017-Oct-17 01:57 UTC.
Position N 56°08' E 019°23'.

Length 162 m; draft 8.8 m.

Type: Ship. MMSI: 255804950.

Date/timePositionNaut miles runAvg speedWind from/ knotsBaromVisibWave heightAir tempDewpointWater temp
2017-Oct-17 00:21N 56°08' E 019°23'712.2
2017-Oct-16 23:49N 56°13' E 019°30'  
2017-Oct-09 14:40N 56°06' E 016°54'410.4
2017-Oct-09 14:14N 56°03' E 016°47'210.7
2017-Oct-09 14:00N 56°02' E 016°44'510.5
2017-Oct-09 13:30N 55°59' E 016°36'510.6
2017-Oct-09 13:00N 55°57' E 016°27'510.7
2017-Oct-09 12:30N 55°54' E 016°19'510.9
2017-Oct-09 12:00N 55°51' E 016°11'611.0
2017-Oct-09 11:30N 55°48' E 016°03'611.3
2017-Oct-09 11:00N 55°46' E 015°54'611.5
2017-Oct-09 10:30N 55°44' E 015°44'611.3
2017-Oct-09 10:00N 55°41' E 015°35'611.2
2017-Oct-09 09:30N 55°38' E 015°27'611.4
2017-Oct-09 09:00N 55°35' E 015°18'611.4
2017-Oct-09 08:30N 55°33' E 015°09'611.4
2017-Oct-09 07:57N 55°30' E 014°59'511.6
2017-Oct-09 07:30N 55°27' E 014°51'611.7
2017-Oct-09 07:00N 55°24' E 014°42'611.7
2017-Oct-09 06:30N 55°20' E 014°35'611.7
2017-Oct-09 06:00N 55°15' E 014°29'611.5
2017-Oct-09 05:30N 55°11' E 014°23'611.6
2017-Oct-09 05:00N 55°07' E 014°16'611.7
2017-Oct-09 04:29N 55°02' E 014°10'1412.1
2017-Oct-09 03:19N 54°57' E 013°46'3112.3
2017-Oct-09 00:47N 54°47' E 012°55'312.5
2017-Oct-09 00:30N 54°46' E 012°49'1612.5
2017-Oct-08 23:13N 54°38' E 012°26'512.5
2017-Oct-08 22:47N 54°34' E 012°18'412.9
2017-Oct-08 22:29N 54°31' E 012°16'612.5
2017-Oct-08 22:00N 54°25' E 012°11'1112.5
2017-Oct-08 21:09N 54°25' E 011°53'212.4
2017-Oct-08 21:00N 54°25' E 011°49'713.3
2017-Oct-08 20:28N 54°27' E 011°38'714.1
2017-Oct-08 20:00N 54°30' E 011°28'714.1
2017-Oct-08 19:30N 54°33' E 011°17'714.2
2017-Oct-08 19:01N 54°36' E 011°06'612.9
2017-Oct-08 18:30N 54°40' E 010°57'611.7
2017-Oct-08 18:00N 54°44' E 010°50'612.2
2017-Oct-08 17:31N 54°50' E 010°52'713.7
2017-Oct-08 17:00N 54°57' E 010°56'712.9
2017-Oct-08 16:30N 55°03' E 011°01'714.1
2017-Oct-08 16:00N 55°10' E 011°03'612.1
2017-Oct-08 15:30N 55°16' E 011°04'11711.8
2017-Oct-08 05:33N 57°12' E 011°34'112.4
2017-Oct-08 05:30N 57°12' E 011°34'612.4
2017-Oct-08 05:01N 57°18' E 011°30'612.6
2017-Oct-08 04:31N 57°24' E 011°26'612.0
2017-Oct-08 04:00N 57°29' E 011°20'612.1
2017-Oct-08 03:30N 57°33' E 011°12'612.1
2017-Oct-08 02:59N 57°37' E 011°03'612.4
2017-Oct-08 02:30N 57°41' E 010°55'5 9.6
2017-Oct-08 02:00N 57°44' E 010°48'5 9.1
2017-Oct-08 01:30N 57°47' E 010°41'611.2
2017-Oct-08 01:00N 57°47' E 010°30'611.6
2017-Oct-08 00:30N 57°46' E 010°20'8911.9
2017-Oct-07 17:02N 57°42' E 007°33'011.5
2017-Oct-07 17:00N 57°42' E 007°32'611.5
2017-Oct-07 16:30N 57°42' E 007°21'611.8
2017-Oct-07 16:00N 57°42' E 007°10'612.0
2017-Oct-07 15:30N 57°42' E 006°59'611.8
2017-Oct-07 15:00N 57°43' E 006°48'612.0
2017-Oct-07 14:29N 57°43' E 006°37'611.4
2017-Oct-07 14:01N 57°46' E 006°28'611.9
2017-Oct-07 13:30N 57°50' E 006°19'612.2
2017-Oct-07 13:00N 57°53' E 006°10'612.1
2017-Oct-07 12:30N 57°58' E 006°02'612.0
2017-Oct-07 12:00N 58°01' E 005°53'711.5
2017-Oct-07 11:25N 58°06' E 005°44'911.9
2017-Oct-07 10:40N 58°12' E 005°31'212.0
2017-Oct-07 10:29N 58°13' E 005°28'712.3
2017-Oct-07 09:55N 58°18' E 005°17'612.2
2017-Oct-07 09:26N 58°22' E 005°09'511.8
2017-Oct-07 09:00N 58°25' E 005°02'611.9
2017-Oct-07 08:31N 58°29' E 004°53'612.0
2017-Oct-07 08:01N 58°33' E 004°45'612.0
2017-Oct-07 07:31N 58°36' E 004°36'812.3
2017-Oct-07 06:52N 58°42' E 004°24'7 5.0
2017-Oct-07 05:28N 58°48' E 004°20'  
Track history (hours):
 
Tides and Currents Weather Stations Pressure Air Temp Water Temp Dewpoint Dewpoint Depression Visibility Wind Speed Wind Dir Waves Ship Positions

Wolgastern

Last reported at 2017-Oct-17 00:21 UTC. Time now 2017-Oct-17 01:57 UTC.
Position N 56°08' E 019°23'.

Length 162 m; draft 8.8 m.

Type: Ship. MMSI: 255804950.

Date/timePositionNaut miles runAvg speedWind from/ knotsBaromVisibWave heightAir tempDewpointWater temp
2017-Oct-17 00:21N 56°08' E 019°23'712.2
2017-Oct-16 23:49N 56°13' E 019°30'  
2017-Oct-09 14:40N 56°06' E 016°54'410.4
2017-Oct-09 14:14N 56°03' E 016°47'210.7
2017-Oct-09 14:00N 56°02' E 016°44'510.5
2017-Oct-09 13:30N 55°59' E 016°36'510.6
2017-Oct-09 13:00N 55°57' E 016°27'510.7
2017-Oct-09 12:30N 55°54' E 016°19'510.9
2017-Oct-09 12:00N 55°51' E 016°11'611.0
2017-Oct-09 11:30N 55°48' E 016°03'611.3
2017-Oct-09 11:00N 55°46' E 015°54'611.5
2017-Oct-09 10:30N 55°44' E 015°44'611.3
2017-Oct-09 10:00N 55°41' E 015°35'611.2
2017-Oct-09 09:30N 55°38' E 015°27'611.4
2017-Oct-09 09:00N 55°35' E 015°18'611.4
2017-Oct-09 08:30N 55°33' E 015°09'611.4
2017-Oct-09 07:57N 55°30' E 014°59'511.6
2017-Oct-09 07:30N 55°27' E 014°51'611.7
2017-Oct-09 07:00N 55°24' E 014°42'611.7
2017-Oct-09 06:30N 55°20' E 014°35'611.7
2017-Oct-09 06:00N 55°15' E 014°29'611.5
2017-Oct-09 05:30N 55°11' E 014°23'611.6
2017-Oct-09 05:00N 55°07' E 014°16'611.7
2017-Oct-09 04:29N 55°02' E 014°10'1412.1
2017-Oct-09 03:19N 54°57' E 013°46'3112.3
2017-Oct-09 00:47N 54°47' E 012°55'312.5
2017-Oct-09 00:30N 54°46' E 012°49'1612.5
2017-Oct-08 23:13N 54°38' E 012°26'512.5
2017-Oct-08 22:47N 54°34' E 012°18'412.9
2017-Oct-08 22:29N 54°31' E 012°16'612.5
2017-Oct-08 22:00N 54°25' E 012°11'1112.5
2017-Oct-08 21:09N 54°25' E 011°53'212.4
2017-Oct-08 21:00N 54°25' E 011°49'713.3
2017-Oct-08 20:28N 54°27' E 011°38'714.1
2017-Oct-08 20:00N 54°30' E 011°28'714.1
2017-Oct-08 19:30N 54°33' E 011°17'714.2
2017-Oct-08 19:01N 54°36' E 011°06'612.9
2017-Oct-08 18:30N 54°40' E 010°57'611.7
2017-Oct-08 18:00N 54°44' E 010°50'612.2
2017-Oct-08 17:31N 54°50' E 010°52'713.7
2017-Oct-08 17:00N 54°57' E 010°56'712.9
2017-Oct-08 16:30N 55°03' E 011°01'714.1
2017-Oct-08 16:00N 55°10' E 011°03'612.1
2017-Oct-08 15:30N 55°16' E 011°04'11711.8
2017-Oct-08 05:33N 57°12' E 011°34'112.4
2017-Oct-08 05:30N 57°12' E 011°34'612.4
2017-Oct-08 05:01N 57°18' E 011°30'612.6
2017-Oct-08 04:31N 57°24' E 011°26'612.0
2017-Oct-08 04:00N 57°29' E 011°20'612.1
2017-Oct-08 03:30N 57°33' E 011°12'612.1
2017-Oct-08 02:59N 57°37' E 011°03'612.4
2017-Oct-08 02:30N 57°41' E 010°55'5 9.6
2017-Oct-08 02:00N 57°44' E 010°48'5 9.1
2017-Oct-08 01:30N 57°47' E 010°41'611.2
2017-Oct-08 01:00N 57°47' E 010°30'611.6
2017-Oct-08 00:30N 57°46' E 010°20'8911.9
2017-Oct-07 17:02N 57°42' E 007°33'011.5
2017-Oct-07 17:00N 57°42' E 007°32'611.5
2017-Oct-07 16:30N 57°42' E 007°21'611.8
2017-Oct-07 16:00N 57°42' E 007°10'612.0
2017-Oct-07 15:30N 57°42' E 006°59'611.8
2017-Oct-07 15:00N 57°43' E 006°48'612.0
2017-Oct-07 14:29N 57°43' E 006°37'611.4
2017-Oct-07 14:01N 57°46' E 006°28'611.9
2017-Oct-07 13:30N 57°50' E 006°19'612.2
2017-Oct-07 13:00N 57°53' E 006°10'612.1
2017-Oct-07 12:30N 57°58' E 006°02'612.0
2017-Oct-07 12:00N 58°01' E 005°53'711.5
2017-Oct-07 11:25N 58°06' E 005°44'911.9
2017-Oct-07 10:40N 58°12' E 005°31'212.0
2017-Oct-07 10:29N 58°13' E 005°28'712.3
2017-Oct-07 09:55N 58°18' E 005°17'612.2
2017-Oct-07 09:26N 58°22' E 005°09'511.8
2017-Oct-07 09:00N 58°25' E 005°02'611.9
2017-Oct-07 08:31N 58°29' E 004°53'612.0
2017-Oct-07 08:01N 58°33' E 004°45'612.0
2017-Oct-07 07:31N 58°36' E 004°36'812.3
2017-Oct-07 06:52N 58°42' E 004°24'7 5.0
2017-Oct-07 05:28N 58°48' E 004°20'  

Dump ship's entire track history